createdAt,value
2018-12-08T00:01:37.058Z,88.79
2018-12-08T00:04:03.355Z,88.38
2018-12-08T00:06:29.682Z,88.65
2018-12-08T00:08:56.015Z,89.25
2018-12-08T00:11:22.366Z,89.70
2018-12-08T00:13:48.667Z,89.84
2018-12-08T00:16:15.143Z,90.23
2018-12-08T00:18:41.428Z,90.89
2018-12-08T00:21:07.730Z,91.29
2018-12-08T00:23:34.024Z,91.65
2018-12-08T00:26:00.326Z,91.76
2018-12-08T00:28:26.623Z,91.76
2018-12-08T00:30:52.920Z,92.18
2018-12-08T00:33:19.196Z,92.00
2018-12-08T00:35:45.512Z,91.82
2018-12-08T00:38:11.808Z,91.57
2018-12-08T00:40:39.122Z,91.60
2018-12-08T00:43:05.424Z,91.92
2018-12-08T00:45:31.912Z,91.82
2018-12-08T00:47:58.185Z,92.09
2018-12-08T00:50:24.486Z,91.92
2018-12-08T00:52:50.778Z,92.24
2018-12-08T00:55:17.068Z,92.55
2018-12-08T00:57:43.399Z,92.61
2018-12-08T01:00:09.738Z,92.76
2018-12-08T01:02:36.051Z,92.76
2018-12-08T01:05:02.360Z,92.47
2018-12-08T01:07:28.651Z,92.20
2018-12-08T01:09:54.943Z,92.08
2018-12-08T01:12:21.216Z,91.74
2018-12-08T01:14:47.529Z,91.82
2018-12-08T01:17:13.824Z,92.11
2018-12-08T01:19:40.159Z,91.81
2018-12-08T01:22:06.446Z,92.00
2018-12-08T01:24:32.730Z,91.89
2018-12-08T01:26:59.021Z,91.68
2018-12-08T01:29:25.332Z,91.35
2018-12-08T01:31:51.622Z,91.24
2018-12-08T01:34:17.909Z,90.96
2018-12-08T01:36:44.237Z,91.06
2018-12-08T01:39:10.541Z,91.00
2018-12-08T01:41:36.827Z,90.70
2018-12-08T01:44:03.173Z,90.71
2018-12-08T01:46:29.503Z,90.38
2018-12-08T01:48:55.833Z,90.49
2018-12-08T01:51:22.109Z,90.74
2018-12-08T01:53:48.454Z,91.12
2018-12-08T01:56:14.747Z,91.40
2018-12-08T01:58:41.035Z,91.49
2018-12-08T02:01:07.345Z,91.44
2018-12-08T02:03:33.655Z,91.53
2018-12-08T02:05:59.945Z,91.73
2018-12-08T02:08:26.258Z,91.75
2018-12-08T02:10:52.553Z,91.96
2018-12-08T02:13:18.850Z,92.13
2018-12-08T02:15:45.166Z,91.77
2018-12-08T02:18:11.475Z,91.62
2018-12-08T02:20:37.748Z,91.57
2018-12-08T02:23:04.056Z,91.36
2018-12-08T02:25:30.351Z,91.27
2018-12-08T02:27:56.649Z,91.27
2018-12-08T02:30:22.926Z,91.26
2018-12-08T02:32:49.237Z,91.48
2018-12-08T02:35:15.522Z,91.16
2018-12-08T02:37:41.827Z,91.16
2018-12-08T02:40:08.124Z,90.87
2018-12-08T02:42:34.410Z,90.75
2018-12-08T02:45:00.691Z,90.67
2018-12-08T02:47:27.029Z,90.83
2018-12-08T02:49:53.318Z,90.74
2018-12-08T02:52:19.618Z,90.53
2018-12-08T02:54:45.894Z,90.57
2018-12-08T02:57:12.207Z,90.10
2018-12-08T02:59:38.492Z,89.63
2018-12-08T03:02:04.798Z,89.25
2018-12-08T03:04:31.090Z,89.15
2018-12-08T03:06:57.378Z,89.02
2018-12-08T03:09:23.661Z,88.82
2018-12-08T03:11:50.004Z,88.73
2018-12-08T03:14:16.305Z,88.55
2018-12-08T03:16:42.602Z,88.69
2018-12-08T03:19:08.902Z,88.76
2018-12-08T03:21:35.195Z,88.70
2018-12-08T03:24:01.473Z,88.26
2018-12-08T03:26:27.802Z,88.55
2018-12-08T03:28:54.105Z,88.53
2018-12-08T03:31:20.437Z,88.50
2018-12-08T03:33:46.719Z,88.46
2018-12-08T03:36:13.018Z,88.66
2018-12-08T03:38:39.343Z,88.25
2018-12-08T03:41:05.657Z,88.23
2018-12-08T03:43:31.963Z,88.36
2018-12-08T03:45:58.250Z,88.75
2018-12-08T03:48:24.543Z,89.04
2018-12-08T03:50:50.842Z,89.40
2018-12-08T03:53:17.128Z,89.83
2018-12-08T03:55:44.966Z,90.09
2018-12-08T03:58:09.755Z,89.87
2018-12-08T04:00:36.097Z,89.84
2018-12-08T04:03:02.435Z,90.06
2018-12-08T04:05:28.733Z,90.08
2018-12-08T04:07:55.034Z,89.97
2018-12-08T04:10:21.359Z,90.10
2018-12-08T04:12:47.652Z,89.66
2018-12-08T04:15:13.941Z,89.64
2018-12-08T04:17:40.228Z,89.91
2018-12-08T04:20:06.523Z,90.49
2018-12-08T04:22:32.934Z,90.90
2018-12-08T04:24:59.132Z,91.01
2018-12-08T04:27:25.444Z,91.43
2018-12-08T04:29:51.718Z,91.57
2018-12-08T04:32:18.008Z,91.57
2018-12-08T04:34:44.310Z,91.43
2018-12-08T04:37:10.605Z,91.28
2018-12-08T04:39:36.910Z,91.33
2018-12-08T04:42:03.243Z,91.59
2018-12-08T04:44:29.534Z,91.40
2018-12-08T04:46:55.818Z,91.66
2018-12-08T04:49:22.135Z,91.99
2018-12-08T04:51:48.416Z,92.01
2018-12-08T04:54:14.713Z,92.09
2018-12-08T04:56:41.007Z,92.16
2018-12-08T04:59:07.305Z,92.30
2018-12-08T05:01:33.592Z,92.52
2018-12-08T05:03:59.898Z,92.61
2018-12-08T05:06:26.196Z,92.51
2018-12-08T05:08:52.488Z,92.51
2018-12-08T05:11:18.769Z,92.53
2018-12-08T05:13:45.086Z,92.51
2018-12-08T05:16:11.371Z,92.36
2018-12-08T05:18:37.695Z,92.53
2018-12-08T05:21:03.991Z,92.76
2018-12-08T05:23:30.276Z,92.98
2018-12-08T05:25:56.557Z,93.03
2018-12-08T05:28:22.872Z,92.81
2018-12-08T05:30:49.193Z,92.79
2018-12-08T05:33:15.486Z,92.68
2018-12-08T05:35:41.782Z,92.77
2018-12-08T05:38:08.071Z,92.79
2018-12-08T05:40:34.354Z,92.48
2018-12-08T05:43:00.666Z,91.96
2018-12-08T05:45:26.967Z,91.87
2018-12-08T05:47:53.263Z,91.53
2018-12-08T05:50:19.556Z,91.50
2018-12-08T05:52:45.857Z,91.43
2018-12-08T05:55:12.165Z,91.30
2018-12-08T05:57:38.475Z,91.15
2018-12-08T06:00:04.777Z,90.84
2018-12-08T06:02:31.074Z,90.71
2018-12-08T06:04:57.360Z,90.52
2018-12-08T06:07:23.681Z,90.07
2018-12-08T06:09:49.965Z,89.51
2018-12-08T06:12:16.266Z,88.71
2018-12-08T06:14:42.559Z,88.30
2018-12-08T06:17:08.915Z,88.19
2018-12-08T06:19:35.200Z,88.10
2018-12-08T06:22:01.503Z,88.19
2018-12-08T06:24:27.835Z,87.86
2018-12-08T06:26:54.134Z,86.86
2018-12-08T06:29:20.454Z,86.16
2018-12-08T06:31:46.771Z,85.47
2018-12-08T06:34:13.109Z,85.12
2018-12-08T06:36:39.441Z,84.61
2018-12-08T06:39:05.739Z,84.25
2018-12-08T06:41:32.032Z,84.27
2018-12-08T06:43:58.309Z,83.94
2018-12-08T06:46:24.618Z,82.99
2018-12-08T06:48:50.912Z,82.77
2018-12-08T06:51:17.204Z,82.84
2018-12-08T06:53:43.494Z,82.83
2018-12-08T06:56:09.784Z,83.27
2018-12-08T06:58:36.100Z,83.91
2018-12-08T07:01:02.401Z,84.29
2018-12-08T07:03:28.701Z,84.47
2018-12-08T07:05:54.992Z,84.53
2018-12-08T07:08:21.286Z,84.86
2018-12-08T07:10:47.591Z,85.42
2018-12-08T07:13:13.869Z,85.27
2018-12-08T07:15:40.171Z,84.82
2018-12-08T07:18:06.467Z,84.55
2018-12-08T07:20:32.804Z,84.78
2018-12-08T07:22:59.102Z,83.84
2018-12-08T07:25:25.406Z,82.06
2018-12-08T07:27:51.713Z,81.63
2018-12-08T07:30:18.027Z,80.49
2018-12-08T07:32:44.373Z,80.11
2018-12-08T07:35:10.670Z,79.80
2018-12-08T07:37:36.956Z,78.87
2018-12-08T07:40:03.266Z,77.05
2018-12-08T07:42:29.625Z,75.90
2018-12-08T07:44:55.893Z,74.95
2018-12-08T07:47:22.179Z,75.30
2018-12-08T07:49:48.480Z,76.33
2018-12-08T07:52:14.786Z,76.55
2018-12-08T07:54:41.090Z,76.21
2018-12-08T07:57:07.402Z,75.60
2018-12-08T07:59:33.702Z,75.63
2018-12-08T08:01:59.989Z,75.80
2018-12-08T08:04:26.335Z,76.81
2018-12-08T08:06:52.637Z,76.58
2018-12-08T08:09:18.925Z,77.32
2018-12-08T08:11:45.231Z,77.02
2018-12-08T08:14:11.524Z,77.23
2018-12-08T08:16:37.815Z,76.98
2018-12-08T08:19:04.153Z,77.32
2018-12-08T08:21:30.441Z,77.06
2018-12-08T08:23:56.738Z,77.49
2018-12-08T08:26:23.024Z,77.28
2018-12-08T08:28:49.340Z,76.53
2018-12-08T08:31:15.622Z,76.52
2018-12-08T08:33:41.931Z,77.11
2018-12-08T08:36:08.267Z,77.43
2018-12-08T08:38:34.555Z,77.15
2018-12-08T08:41:00.875Z,77.17
2018-12-08T08:43:27.182Z,77.26
2018-12-08T08:45:53.495Z,77.34
2018-12-08T08:48:19.801Z,77.72
2018-12-08T08:50:46.081Z,77.29
2018-12-08T08:53:12.381Z,76.89
2018-12-08T08:55:38.657Z,77.23
2018-12-08T08:58:04.973Z,76.80
2018-12-08T09:00:31.258Z,77.01
2018-12-08T09:02:57.567Z,77.18
2018-12-08T09:05:23.877Z,76.76
2018-12-08T09:07:50.166Z,76.62
2018-12-08T09:10:16.459Z,76.67
2018-12-08T09:12:42.749Z,75.43
2018-12-08T09:15:09.038Z,75.04
2018-12-08T09:17:35.374Z,74.24
2018-12-08T09:20:01.732Z,73.54
2018-12-08T09:22:28.012Z,73.21
2018-12-08T09:24:54.347Z,72.05
2018-12-08T09:27:20.688Z,70.70
2018-12-08T09:29:47.084Z,70.47
2018-12-08T09:32:13.276Z,70.47
2018-12-08T09:34:39.632Z,70.54
2018-12-08T09:37:05.904Z,70.08
2018-12-08T09:39:32.205Z,69.59
2018-12-08T09:41:58.496Z,69.09
2018-12-08T09:44:24.799Z,69.68
2018-12-08T09:46:51.094Z,70.05
2018-12-08T09:49:17.426Z,70.75
2018-12-08T09:51:43.703Z,71.25
2018-12-08T09:54:09.999Z,71.58
2018-12-08T09:56:36.302Z,71.74
2018-12-08T09:59:02.612Z,72.55
2018-12-08T10:01:28.902Z,72.79
2018-12-08T10:03:55.201Z,72.49
2018-12-08T10:06:21.500Z,72.71
2018-12-08T10:08:47.790Z,73.77
2018-12-08T10:11:14.088Z,74.12
2018-12-08T10:13:40.414Z,74.76
2018-12-08T10:16:06.702Z,75.20
2018-12-08T10:18:33.038Z,75.71
2018-12-08T10:20:59.330Z,75.92
2018-12-08T10:23:25.634Z,76.36
2018-12-08T10:25:51.929Z,76.39
2018-12-08T10:28:18.242Z,76.27
2018-12-08T10:30:44.528Z,76.46
2018-12-08T10:33:10.819Z,76.71
2018-12-08T10:35:37.166Z,76.81
2018-12-08T10:38:03.467Z,77.11
2018-12-08T10:40:29.752Z,77.63
2018-12-08T10:42:56.070Z,78.17
2018-12-08T10:45:22.366Z,78.29
2018-12-08T10:47:48.695Z,78.46
2018-12-08T10:50:15.001Z,78.14
2018-12-08T10:52:41.305Z,78.43
2018-12-08T10:55:07.615Z,77.87
2018-12-08T10:57:33.911Z,77.23
2018-12-08T11:00:00.207Z,76.78
2018-12-08T11:02:26.544Z,76.10
2018-12-08T11:04:52.818Z,75.22
2018-12-08T11:07:19.129Z,75.26
2018-12-08T11:09:45.407Z,75.45
2018-12-08T11:12:11.702Z,74.60
2018-12-08T11:14:37.998Z,74.43
2018-12-08T11:17:04.309Z,74.89
2018-12-08T11:19:30.598Z,74.52
2018-12-08T11:21:56.895Z,74.54
2018-12-08T11:24:23.211Z,74.28
2018-12-08T11:26:49.507Z,73.90
2018-12-08T11:29:15.797Z,73.90
2018-12-08T11:31:42.108Z,73.12
2018-12-08T11:34:08.445Z,72.99
2018-12-08T11:36:34.776Z,72.57
2018-12-08T11:39:01.084Z,72.41
2018-12-08T11:41:27.427Z,72.25
2018-12-08T11:43:53.712Z,71.80
2018-12-08T11:46:20.065Z,72.33
2018-12-08T11:48:46.340Z,72.19
2018-12-08T11:51:12.672Z,71.62
2018-12-08T11:53:38.971Z,72.19
2018-12-08T11:56:05.270Z,71.67
2018-12-08T11:58:31.553Z,71.98
2018-12-08T12:00:57.846Z,71.91
2018-12-08T12:03:24.166Z,71.97
2018-12-08T12:05:50.473Z,71.71
2018-12-08T12:08:16.764Z,72.22
2018-12-08T12:10:43.073Z,71.76
2018-12-08T12:13:09.357Z,71.15
2018-12-08T12:15:35.647Z,70.82
2018-12-08T12:18:01.947Z,71.09
2018-12-08T12:20:28.259Z,71.13
2018-12-08T12:22:54.538Z,71.11
2018-12-08T12:25:20.844Z,71.32
2018-12-08T12:27:47.127Z,71.02
2018-12-08T12:30:13.417Z,71.26
2018-12-08T12:32:39.715Z,71.26
2018-12-08T12:35:06.024Z,71.44
2018-12-08T12:37:32.312Z,71.67
2018-12-08T12:39:58.603Z,72.63
2018-12-08T12:42:24.914Z,73.78
2018-12-08T12:44:51.206Z,74.68
2018-12-08T12:47:17.504Z,75.39
2018-12-08T12:49:43.810Z,75.90
2018-12-08T12:52:10.094Z,76.28
2018-12-08T12:54:36.382Z,76.16
2018-12-08T12:57:02.675Z,76.03
2018-12-08T12:59:28.990Z,75.70
2018-12-08T13:01:55.266Z,75.50
2018-12-08T13:04:21.575Z,75.03
2018-12-08T13:06:47.860Z,75.05
2018-12-08T13:09:14.151Z,75.48
2018-12-08T13:11:40.455Z,75.79
2018-12-08T13:14:06.767Z,75.85
2018-12-08T13:16:33.046Z,75.85
2018-12-08T13:18:59.339Z,75.78
2018-12-08T13:21:25.637Z,76.05
2018-12-08T13:23:51.936Z,76.52
2018-12-08T13:26:18.225Z,76.49
2018-12-08T13:28:44.540Z,76.39
2018-12-08T13:31:10.819Z,76.27
2018-12-08T13:33:37.117Z,76.46
2018-12-08T13:36:03.421Z,76.06
2018-12-08T13:38:29.742Z,76.32
2018-12-08T13:40:56.017Z,76.53
2018-12-08T13:43:22.319Z,76.91
2018-12-08T13:45:48.607Z,76.79
2018-12-08T13:48:14.904Z,76.81
2018-12-08T13:50:41.245Z,76.72
2018-12-08T13:53:07.560Z,76.90
2018-12-08T13:55:33.842Z,77.01
2018-12-08T13:58:00.171Z,77.27
2018-12-08T14:00:26.472Z,77.22
2018-12-08T14:02:52.758Z,77.47
2018-12-08T14:05:19.055Z,77.20
2018-12-08T14:07:45.399Z,77.44
2018-12-08T14:10:11.686Z,77.37
2018-12-08T14:12:38.003Z,77.29
2018-12-08T14:15:04.296Z,77.55
2018-12-08T14:17:30.599Z,77.07
2018-12-08T14:19:56.913Z,77.18
2018-12-08T14:22:23.198Z,77.33
2018-12-08T14:24:49.495Z,77.58
2018-12-08T14:27:15.804Z,77.27
2018-12-08T14:29:42.129Z,77.31
2018-12-08T14:32:08.438Z,77.22
2018-12-08T14:34:34.767Z,77.26
2018-12-08T14:37:01.094Z,77.39
2018-12-08T14:39:27.383Z,77.88
2018-12-08T14:41:53.732Z,77.74
2018-12-08T14:44:20.010Z,78.03
2018-12-08T14:46:46.356Z,78.29
2018-12-08T14:49:12.645Z,79.08
2018-12-08T14:51:38.981Z,79.20
2018-12-08T14:54:05.265Z,78.92
2018-12-08T14:56:31.569Z,78.95
2018-12-08T14:58:57.867Z,78.55
2018-12-08T15:01:24.174Z,79.52
2018-12-08T15:03:50.465Z,79.39
2018-12-08T15:06:16.769Z,79.27
2018-12-08T15:08:43.053Z,79.41
2018-12-08T15:11:09.346Z,79.86
2018-12-08T15:13:35.649Z,79.19
2018-12-08T15:16:02.010Z,77.97
2018-12-08T15:18:28.294Z,77.71
2018-12-08T15:20:54.600Z,77.66
2018-12-08T15:23:20.893Z,77.08
2018-12-08T15:25:47.185Z,76.59
2018-12-08T15:28:13.487Z,76.49
2018-12-08T15:30:39.794Z,76.01
2018-12-08T15:33:06.075Z,75.61
2018-12-08T15:35:32.384Z,76.11
2018-12-08T15:37:58.687Z,76.53
2018-12-08T15:40:24.980Z,76.30
2018-12-08T15:42:51.282Z,76.14
2018-12-08T15:45:17.581Z,76.53
2018-12-08T15:47:43.862Z,76.73
2018-12-08T15:50:10.160Z,76.63
2018-12-08T15:52:36.452Z,76.80
2018-12-08T15:55:02.759Z,76.98
2018-12-08T15:57:29.115Z,76.89
2018-12-08T15:59:55.419Z,77.35
2018-12-08T16:02:21.725Z,77.63
2018-12-08T16:04:47.995Z,78.02
2018-12-08T16:07:14.292Z,78.42
2018-12-08T16:09:40.612Z,78.56
2018-12-08T16:12:06.921Z,78.87
2018-12-08T16:14:33.217Z,78.71
2018-12-08T16:16:59.525Z,78.40
2018-12-08T16:19:25.822Z,79.03
2018-12-08T16:21:52.159Z,79.06
2018-12-08T16:24:18.470Z,78.75
2018-12-08T16:26:44.754Z,79.80
2018-12-08T16:29:11.056Z,80.54
2018-12-08T16:31:37.351Z,80.40
2018-12-08T16:34:03.648Z,80.30
2018-12-08T16:36:29.932Z,80.02
2018-12-08T16:38:56.244Z,79.57
2018-12-08T16:41:22.800Z,79.71
2018-12-08T16:43:49.092Z,79.99
2018-12-08T16:46:15.426Z,80.17
2018-12-08T16:48:41.725Z,80.09
2018-12-08T16:51:08.026Z,79.93
2018-12-08T16:53:34.319Z,79.74
2018-12-08T16:56:00.610Z,79.95
2018-12-08T16:58:26.911Z,80.12
2018-12-08T17:00:53.213Z,79.72
2018-12-08T17:03:19.509Z,79.78
2018-12-08T17:05:45.828Z,79.78
2018-12-08T17:08:12.122Z,79.74
2018-12-08T17:10:38.419Z,80.00
2018-12-08T17:13:04.732Z,80.47
2018-12-08T17:15:31.006Z,80.88
2018-12-08T17:17:57.311Z,81.39
2018-12-08T17:20:23.590Z,81.44
2018-12-08T17:22:49.886Z,81.73
2018-12-08T17:25:16.219Z,82.20
2018-12-08T17:27:42.529Z,82.21
2018-12-08T17:30:08.815Z,82.33
2018-12-08T17:32:35.098Z,82.04
2018-12-08T17:35:01.404Z,81.73
2018-12-08T17:37:27.704Z,81.99
2018-12-08T17:39:53.988Z,82.49
2018-12-08T17:42:20.314Z,81.92
2018-12-08T17:44:46.601Z,81.25
2018-12-08T17:47:12.924Z,81.29
2018-12-08T17:49:39.214Z,81.38
2018-12-08T17:52:05.556Z,81.51
2018-12-08T17:54:31.842Z,82.72
2018-12-08T17:56:58.149Z,82.67
2018-12-08T17:59:24.442Z,82.91
2018-12-08T18:01:50.735Z,83.04
2018-12-08T18:04:17.042Z,82.79
2018-12-08T18:06:43.355Z,83.10
2018-12-08T18:09:09.634Z,85.22
2018-12-08T18:11:35.957Z,89.35
2018-12-08T18:14:02.264Z,92.13
2018-12-08T18:16:28.580Z,93.42
2018-12-08T18:18:54.875Z,94.29
2018-12-08T18:21:21.318Z,94.82
2018-12-08T18:23:47.474Z,95.39
2018-12-08T18:26:13.758Z,96.00
2018-12-08T18:28:40.076Z,97.37
2018-12-08T18:31:06.372Z,98.39
2018-12-08T18:33:32.664Z,99.04
2018-12-08T18:35:58.976Z,99.72
2018-12-08T18:38:25.432Z,100.00
2018-12-08T18:40:51.761Z,100.00
2018-12-08T18:43:18.079Z,100.00
2018-12-08T18:45:44.382Z,100.00
2018-12-08T18:48:11.320Z,100.00
2018-12-08T18:50:37.655Z,100.00
2018-12-08T18:53:03.950Z,100.00
2018-12-08T18:55:30.241Z,100.00
2018-12-08T18:57:56.543Z,100.00
2018-12-08T19:00:22.857Z,100.00
2018-12-08T19:02:49.133Z,100.00
2018-12-08T19:05:15.433Z,100.00
2018-12-08T19:07:41.733Z,100.00
2018-12-08T19:10:08.076Z,100.00
2018-12-08T19:12:34.374Z,100.00
2018-12-08T19:15:00.683Z,100.00
2018-12-08T19:17:27.210Z,100.00
2018-12-08T19:19:53.501Z,100.00
2018-12-08T19:22:19.796Z,100.00
2018-12-08T19:24:46.086Z,100.00
2018-12-08T19:27:12.392Z,100.00
2018-12-08T19:29:38.699Z,100.00
2018-12-08T19:32:04.992Z,100.00
2018-12-08T19:34:31.290Z,100.00
2018-12-08T19:36:57.584Z,100.00
2018-12-08T19:39:23.870Z,100.00
2018-12-08T19:41:50.205Z,100.00
2018-12-08T19:44:16.493Z,100.00
2018-12-08T19:46:42.861Z,100.00
2018-12-08T19:49:09.098Z,100.00
2018-12-08T19:51:35.404Z,100.00
2018-12-08T19:54:01.685Z,100.00
2018-12-08T19:56:28.004Z,100.00
2018-12-08T19:58:54.311Z,100.00
2018-12-08T20:01:20.600Z,100.00
2018-12-08T20:03:46.896Z,100.00
2018-12-08T20:06:13.204Z,100.00
2018-12-08T20:08:39.501Z,100.00
2018-12-08T20:11:05.831Z,100.00
2018-12-08T20:13:32.124Z,100.00
2018-12-08T20:15:58.416Z,100.00
2018-12-08T20:18:24.703Z,100.00
2018-12-08T20:20:51.014Z,100.00
2018-12-08T20:23:17.321Z,100.00
2018-12-08T20:25:43.611Z,100.00
2018-12-08T20:28:09.908Z,100.00
2018-12-08T20:30:36.216Z,100.00
2018-12-08T20:33:02.506Z,100.00
2018-12-08T20:35:28.814Z,100.00
2018-12-08T20:37:55.122Z,100.00
2018-12-08T20:40:21.433Z,100.00
2018-12-08T20:42:47.723Z,100.00
2018-12-08T20:45:14.030Z,100.00
2018-12-08T20:47:40.335Z,100.00
2018-12-08T20:50:06.627Z,100.00
2018-12-08T20:52:32.961Z,100.00
2018-12-08T20:54:59.259Z,100.00
2018-12-08T20:57:25.540Z,100.00
2018-12-08T20:59:51.852Z,100.00
2018-12-08T21:02:18.159Z,100.00
2018-12-08T21:04:44.459Z,100.00
2018-12-08T21:07:10.748Z,100.00
2018-12-08T21:09:37.056Z,100.00
2018-12-08T21:12:03.343Z,100.00
2018-12-08T21:14:29.653Z,100.00
2018-12-08T21:16:55.958Z,100.00
2018-12-08T21:19:22.246Z,100.00
2018-12-08T21:21:48.563Z,100.00
2018-12-08T21:24:14.874Z,100.00
2018-12-08T21:26:41.166Z,100.00
2018-12-08T21:29:07.461Z,100.00
2018-12-08T21:31:33.755Z,100.00
2018-12-08T21:34:00.061Z,100.00
2018-12-08T21:36:26.342Z,100.00
2018-12-08T21:38:52.649Z,100.00
2018-12-08T21:41:18.973Z,100.00
2018-12-08T21:43:45.268Z,100.00
2018-12-08T21:46:11.560Z,100.00
2018-12-08T21:48:37.873Z,100.00
2018-12-08T21:51:04.161Z,100.00
2018-12-08T21:53:30.479Z,100.00
2018-12-08T21:55:56.773Z,100.00
2018-12-08T21:58:23.072Z,100.00
2018-12-08T22:00:49.363Z,100.00
2018-12-08T22:03:15.674Z,100.00
2018-12-08T22:05:42.029Z,100.00
2018-12-08T22:08:08.325Z,100.00
2018-12-08T22:10:34.621Z,100.00
2018-12-08T22:13:00.911Z,100.00
2018-12-08T22:15:27.190Z,100.00
2018-12-08T22:17:53.521Z,100.00
2018-12-08T22:20:19.827Z,100.00
2018-12-08T22:22:46.126Z,100.00
2018-12-08T22:25:12.447Z,100.00
2018-12-08T22:27:39.076Z,100.00
2018-12-08T22:30:05.356Z,100.00
2018-12-08T22:32:31.663Z,100.00
2018-12-08T22:34:57.966Z,100.00
2018-12-08T22:37:24.261Z,100.00
2018-12-08T22:39:50.542Z,100.00
2018-12-08T22:42:16.851Z,100.00
2018-12-08T22:44:43.146Z,100.00
2018-12-08T22:47:09.439Z,100.00
2018-12-08T22:49:35.735Z,100.00
2018-12-08T22:52:02.030Z,100.00
2018-12-08T22:54:28.316Z,100.00
2018-12-08T22:56:54.619Z,100.00
2018-12-08T22:59:20.919Z,100.00
2018-12-08T23:01:47.202Z,100.00
2018-12-08T23:04:13.486Z,100.00
2018-12-08T23:06:39.796Z,100.00
2018-12-08T23:09:06.073Z,100.00
2018-12-08T23:11:32.418Z,100.00
2018-12-08T23:13:58.705Z,100.00
2018-12-08T23:16:24.997Z,100.00
2018-12-08T23:18:51.283Z,100.00
2018-12-08T23:21:17.595Z,100.00
2018-12-08T23:23:43.895Z,100.00
2018-12-08T23:26:10.196Z,100.00
2018-12-08T23:28:36.489Z,100.00
2018-12-08T23:31:02.780Z,100.00
2018-12-08T23:33:29.086Z,100.00
2018-12-08T23:35:55.426Z,100.00
2018-12-08T23:38:21.709Z,100.00
2018-12-08T23:40:48.005Z,100.00
2018-12-08T23:43:14.322Z,100.00
2018-12-08T23:45:40.626Z,100.00
2018-12-08T23:48:06.911Z,100.00
2018-12-08T23:50:33.221Z,100.00
2018-12-08T23:52:59.525Z,100.00
2018-12-08T23:55:25.829Z,100.00
2018-12-08T23:57:52.113Z,100.00
